Airfield :
LOGIN :

Register | Disclaimer

   EN    FR    IT 

 










Legend :    VFR   Marginal VFR   IFR   Intensive IFR   Very Intensive IFR
Visi :
Ceiling :
>= 8 km
>= 3000ft
5 to 8 km
1000 to 3000 ft
1500m to 5 km
500 to 1000 ft
800 to 1500m
200 to 500 ft
< 800m
< 200 ft
Symbols :   Thunderstorms  Fog  Heavy snow  Heavy precipitations  Wind > 20 kt
SIGMETs :     Misc.  Thunderstorms  Icing  Turbulence  Mountain Waves  Volcanic Ashes






- Airport Elevation : 3 ft
- IATA code : DHR


EHKD - Den Helder De Kooy

CURRENT METAR :
  • 270725Z AUTO 17008KT 9999 BKN076 OVC081 03/01 Q0999 BLU 17009KT 9999 SCT025

EXPIRED METARs :
  • 270655Z AUTO 17008KT 9999 SCT027 BKN033 BKN043 03/00 Q0999 BLU 17009KT 9999 BKN025
  • 270638Z AUTO 17009KT 9999 SCT027 BKN033 BKN039 03/00 Q0999 BLU 17009KT 9999 BKN025
  • 270625Z AUTO 16008KT 9999 BKN030 BKN036 BKN050 03/00 Q0999 BLU 21006KT 9999 SCT025
  • 270555Z AUTO 18006KT 140V200 9999 FEW031 SCT039 OVC100 03/00 Q1000 BLU 21006KT 9999 SCT025
  • 270525Z AUTO 22006KT 9999 SCT032 OVC110 04/M00 Q1000 BLU 21006KT 9999 SCT025
  • 270455Z AUTO 23006KT 9999 FEW029 OVC110 05/M00 Q1001 BLU

TAF TAF EHKD
Valid from the 27 at 06:00 until the 27 at 18:00 UTC


270518Z 2706/2718 22008KT 9999 FEW025
BECMG 2709/2712 4000 RA BKN006 OVC008
TEMPO 2709/2718 2500 RASN SHRA SCT003 OVC006 FEW015CB
PROB30
TEMPO 2710/2718 1000 SNRA SCT001 BKN002
BECMG 2712/2714 32018KT
PROB40 2717/2718 FEW022



MET'MAP, your aeronautical weather chart ! - Copyright ORBIFLY December 2007 - Disclaimer

ORBIFLY MET'MAP TEAM :

Programming & Development : Alexandra Zaïnal
Concept & original design : Baudouin d'Aumeries
Assistance for programming : Marc-Olivier Méhu
Technical & hardware support : Manuel Goepfert

Contact : metmap@orbifly.com




SOURCES & CREDITS :

   NOAA